sensor_id;sensor_type;location;lat;lon;timestamp;P1;durP1;ratioP1;P2;durP2;ratioP2
6251;SDS011;3159;52.414;9.784;2022-10-22T00:01:46;7.27;;;5.80;;
6251;SDS011;3159;52.414;9.784;2022-10-22T00:04:14;9.33;;;6.27;;
6251;SDS011;3159;52.414;9.784;2022-10-22T00:06:41;6.60;;;5.97;;
6251;SDS011;3159;52.414;9.784;2022-10-22T00:09:09;9.07;;;6.73;;
6251;SDS011;3159;52.414;9.784;2022-10-22T00:11:36;10.80;;;6.70;;
6251;SDS011;3159;52.414;9.784;2022-10-22T00:14:02;8.83;;;7.57;;
6251;SDS011;3159;52.414;9.784;2022-10-22T00:16:30;8.97;;;8.07;;
6251;SDS011;3159;52.414;9.784;2022-10-22T00:18:56;7.20;;;6.50;;
6251;SDS011;3159;52.414;9.784;2022-10-22T00:21:25;8.27;;;7.47;;
6251;SDS011;3159;52.414;9.784;2022-10-22T00:23:53;8.30;;;7.33;;
6251;SDS011;3159;52.414;9.784;2022-10-22T00:26:20;7.37;;;6.47;;
6251;SDS011;3159;52.414;9.784;2022-10-22T00:28:47;7.10;;;6.40;;
6251;SDS011;3159;52.414;9.784;2022-10-22T00:31:16;7.03;;;6.00;;
6251;SDS011;3159;52.414;9.784;2022-10-22T00:33:44;7.20;;;6.43;;
6251;SDS011;3159;52.414;9.784;2022-10-22T00:36:12;7.83;;;6.00;;
6251;SDS011;3159;52.414;9.784;2022-10-22T00:38:40;9.03;;;5.47;;
6251;SDS011;3159;52.414;9.784;2022-10-22T00:41:07;6.70;;;5.17;;
6251;SDS011;3159;52.414;9.784;2022-10-22T00:46:20;7.13;;;5.33;;
6251;SDS011;3159;52.414;9.784;2022-10-22T00:48:47;7.77;;;5.10;;
6251;SDS011;3159;52.414;9.784;2022-10-22T00:51:14;6.93;;;4.80;;
6251;SDS011;3159;52.414;9.784;2022-10-22T00:53:44;8.47;;;5.03;;
6251;SDS011;3159;52.414;9.784;2022-10-22T00:56:14;7.80;;;5.10;;
6251;SDS011;3159;52.414;9.784;2022-10-22T00:58:42;7.67;;;5.13;;
6251;SDS011;3159;52.414;9.784;2022-10-22T01:01:13;8.00;;;5.73;;
6251;SDS011;3159;52.414;9.784;2022-10-22T01:03:44;6.33;;;4.73;;
6251;SDS011;3159;52.414;9.784;2022-10-22T01:06:11;5.70;;;4.60;;
6251;SDS011;3159;52.414;9.784;2022-10-22T01:08:45;7.63;;;4.60;;
6251;SDS011;3159;52.414;9.784;2022-10-22T01:11:19;5.73;;;5.13;;
6251;SDS011;3159;52.414;9.784;2022-10-22T01:13:52;7.50;;;5.23;;
6251;SDS011;3159;52.414;9.784;2022-10-22T01:16:28;6.87;;;5.33;;
6251;SDS011;3159;52.414;9.784;2022-10-22T01:19:03;6.67;;;4.50;;
6251;SDS011;3159;52.414;9.784;2022-10-22T01:21:39;6.00;;;5.40;;
6251;SDS011;3159;52.414;9.784;2022-10-22T01:24:16;5.20;;;4.60;;
6251;SDS011;3159;52.414;9.784;2022-10-22T01:27:06;7.90;;;4.60;;
6251;SDS011;3159;52.414;9.784;2022-10-22T01:29:41;4.83;;;4.10;;
6251;SDS011;3159;52.414;9.784;2022-10-22T01:32:14;4.77;;;4.13;;
6251;SDS011;3159;52.414;9.784;2022-10-22T01:34:44;5.53;;;4.40;;
6251;SDS011;3159;52.414;9.784;2022-10-22T01:37:15;5.27;;;4.67;;
6251;SDS011;3159;52.414;9.784;2022-10-22T01:39:45;7.10;;;4.73;;
6251;SDS011;3159;52.414;9.784;2022-10-22T01:42:13;7.80;;;5.47;;
6251;SDS011;3159;52.414;9.784;2022-10-22T01:44:42;8.57;;;5.80;;
6251;SDS011;3159;52.414;9.784;2022-10-22T01:47:13;8.87;;;5.73;;
6251;SDS011;3159;52.414;9.784;2022-10-22T01:49:50;8.27;;;5.43;;
6251;SDS011;3159;52.414;9.784;2022-10-22T01:52:52;7.30;;;5.67;;
6251;SDS011;3159;52.414;9.784;2022-10-22T01:55:29;5.43;;;4.93;;
6251;SDS011;3159;52.414;9.784;2022-10-22T01:58:04;6.20;;;5.53;;
6251;SDS011;3159;52.414;9.784;2022-10-22T02:00:46;5.90;;;5.27;;
6251;SDS011;3159;52.414;9.784;2022-10-22T02:03:20;7.43;;;5.40;;
6251;SDS011;3159;52.414;9.784;2022-10-22T02:05:52;5.50;;;5.00;;
6251;SDS011;3159;52.414;9.784;2022-10-22T02:08:22;6.70;;;4.30;;
6251;SDS011;3159;52.414;9.784;2022-10-22T02:10:52;5.13;;;4.30;;
6251;SDS011;3159;52.414;9.784;2022-10-22T02:13:20;6.07;;;4.10;;
6251;SDS011;3159;52.414;9.784;2022-10-22T02:15:51;5.77;;;4.57;;
6251;SDS011;3159;52.414;9.784;2022-10-22T02:18:19;5.20;;;4.70;;
6251;SDS011;3159;52.414;9.784;2022-10-22T02:20:49;4.57;;;4.17;;
6251;SDS011;3159;52.414;9.784;2022-10-22T02:23:17;5.73;;;4.37;;
6251;SDS011;3159;52.414;9.784;2022-10-22T02:25:47;6.87;;;4.70;;
6251;SDS011;3159;52.414;9.784;2022-10-22T02:28:20;8.37;;;4.90;;
6251;SDS011;3159;52.414;9.784;2022-10-22T02:30:54;6.43;;;5.47;;
6251;SDS011;3159;52.414;9.784;2022-10-22T02:33:26;8.07;;;5.30;;
6251;SDS011;3159;52.414;9.784;2022-10-22T02:35:57;7.03;;;4.83;;
6251;SDS011;3159;52.414;9.784;2022-10-22T02:38:25;5.50;;;4.20;;
6251;SDS011;3159;52.414;9.784;2022-10-22T02:40:53;5.47;;;4.90;;
6251;SDS011;3159;52.414;9.784;2022-10-22T02:43:20;4.37;;;3.97;;
6251;SDS011;3159;52.414;9.784;2022-10-22T02:45:49;8.17;;;5.00;;
6251;SDS011;3159;52.414;9.784;2022-10-22T02:48:18;5.20;;;4.70;;
6251;SDS011;3159;52.414;9.784;2022-10-22T02:50:44;5.23;;;4.73;;
6251;SDS011;3159;52.414;9.784;2022-10-22T02:53:11;4.97;;;4.30;;
6251;SDS011;3159;52.414;9.784;2022-10-22T02:55:40;5.57;;;4.67;;
6251;SDS011;3159;52.414;9.784;2022-10-22T02:58:07;6.13;;;4.47;;
6251;SDS011;3159;52.414;9.784;2022-10-22T03:00:33;5.60;;;5.10;;
6251;SDS011;3159;52.414;9.784;2022-10-22T03:03:00;7.40;;;5.30;;
6251;SDS011;3159;52.414;9.784;2022-10-22T03:05:28;7.03;;;5.00;;
6251;SDS011;3159;52.414;9.784;2022-10-22T03:07:55;5.30;;;4.80;;
6251;SDS011;3159;52.414;9.784;2022-10-22T03:10:22;5.73;;;4.20;;
6251;SDS011;3159;52.414;9.784;2022-10-22T03:12:49;6.10;;;4.97;;
6251;SDS011;3159;52.414;9.784;2022-10-22T03:15:16;7.70;;;5.10;;
6251;SDS011;3159;52.414;9.784;2022-10-22T03:17:42;7.80;;;5.23;;
6251;SDS011;3159;52.414;9.784;2022-10-22T03:20:09;6.17;;;4.90;;
6251;SDS011;3159;52.414;9.784;2022-10-22T03:22:38;5.10;;;4.60;;
6251;SDS011;3159;52.414;9.784;2022-10-22T03:25:08;7.43;;;5.17;;
6251;SDS011;3159;52.414;9.784;2022-10-22T03:27:38;5.40;;;4.70;;
6251;SDS011;3159;52.414;9.784;2022-10-22T03:30:07;7.47;;;5.03;;
6251;SDS011;3159;52.414;9.784;2022-10-22T03:32:35;4.97;;;4.07;;
6251;SDS011;3159;52.414;9.784;2022-10-22T03:35:03;5.23;;;4.37;;
6251;SDS011;3159;52.414;9.784;2022-10-22T03:37:30;5.60;;;4.63;;
6251;SDS011;3159;52.414;9.784;2022-10-22T03:40:00;5.97;;;4.40;;
6251;SDS011;3159;52.414;9.784;2022-10-22T03:42:28;5.30;;;4.40;;
6251;SDS011;3159;52.414;9.784;2022-10-22T03:44:55;6.53;;;4.33;;
6251;SDS011;3159;52.414;9.784;2022-10-22T03:47:21;4.93;;;3.97;;
6251;SDS011;3159;52.414;9.784;2022-10-22T03:49:48;5.73;;;3.63;;
6251;SDS011;3159;52.414;9.784;2022-10-22T03:52:15;6.17;;;4.37;;
6251;SDS011;3159;52.414;9.784;2022-10-22T03:54:42;6.53;;;4.30;;
6251;SDS011;3159;52.414;9.784;2022-10-22T03:57:11;7.27;;;4.90;;
6251;SDS011;3159;52.414;9.784;2022-10-22T03:59:39;6.53;;;4.33;;
6251;SDS011;3159;52.414;9.784;2022-10-22T04:02:07;6.00;;;4.23;;
6251;SDS011;3159;52.414;9.784;2022-10-22T04:04:35;4.50;;;4.03;;
6251;SDS011;3159;52.414;9.784;2022-10-22T04:07:02;4.90;;;4.00;;
6251;SDS011;3159;52.414;9.784;2022-10-22T04:09:29;5.70;;;4.30;;
6251;SDS011;3159;52.414;9.784;2022-10-22T04:11:56;6.10;;;4.10;;
6251;SDS011;3159;52.414;9.784;2022-10-22T04:14:25;5.47;;;3.97;;
6251;SDS011;3159;52.414;9.784;2022-10-22T04:16:52;6.33;;;3.80;;
6251;SDS011;3159;52.414;9.784;2022-10-22T04:19:19;6.37;;;3.97;;
6251;SDS011;3159;52.414;9.784;2022-10-22T04:21:45;8.07;;;4.30;;
6251;SDS011;3159;52.414;9.784;2022-10-22T04:24:12;5.97;;;3.63;;
6251;SDS011;3159;52.414;9.784;2022-10-22T04:26:39;5.60;;;4.20;;
6251;SDS011;3159;52.414;9.784;2022-10-22T04:29:06;4.50;;;3.87;;
6251;SDS011;3159;52.414;9.784;2022-10-22T04:31:34;4.83;;;4.33;;
6251;SDS011;3159;52.414;9.784;2022-10-22T04:34:01;4.93;;;4.37;;
6251;SDS011;3159;52.414;9.784;2022-10-22T04:36:30;6.40;;;3.90;;
6251;SDS011;3159;52.414;9.784;2022-10-22T04:38:57;5.60;;;4.13;;
6251;SDS011;3159;52.414;9.784;2022-10-22T04:41:26;4.07;;;3.67;;
6251;SDS011;3159;52.414;9.784;2022-10-22T04:43:54;6.00;;;3.80;;
6251;SDS011;3159;52.414;9.784;2022-10-22T04:46:22;6.90;;;4.43;;
6251;SDS011;3159;52.414;9.784;2022-10-22T04:48:54;5.20;;;4.70;;
6251;SDS011;3159;52.414;9.784;2022-10-22T04:51:21;5.83;;;4.37;;
6251;SDS011;3159;52.414;9.784;2022-10-22T04:53:49;5.77;;;4.47;;
6251;SDS011;3159;52.414;9.784;2022-10-22T04:56:18;5.13;;;4.43;;
6251;SDS011;3159;52.414;9.784;2022-10-22T04:58:45;6.10;;;4.40;;
6251;SDS011;3159;52.414;9.784;2022-10-22T05:01:14;6.43;;;4.90;;
6251;SDS011;3159;52.414;9.784;2022-10-22T05:03:43;5.30;;;4.67;;
6251;SDS011;3159;52.414;9.784;2022-10-22T05:06:11;7.77;;;4.43;;
6251;SDS011;3159;52.414;9.784;2022-10-22T05:08:39;5.50;;;4.40;;
6251;SDS011;3159;52.414;9.784;2022-10-22T05:11:10;4.67;;;4.20;;
6251;SDS011;3159;52.414;9.784;2022-10-22T05:13:38;6.90;;;4.63;;
6251;SDS011;3159;52.414;9.784;2022-10-22T05:16:05;4.53;;;4.13;;
6251;SDS011;3159;52.414;9.784;2022-10-22T05:18:33;4.77;;;3.70;;
6251;SDS011;3159;52.414;9.784;2022-10-22T05:21:01;6.63;;;4.27;;
6251;SDS011;3159;52.414;9.784;2022-10-22T05:23:29;4.13;;;3.73;;
6251;SDS011;3159;52.414;9.784;2022-10-22T05:25:56;3.83;;;3.53;;
6251;SDS011;3159;52.414;9.784;2022-10-22T05:28:26;4.50;;;4.10;;
6251;SDS011;3159;52.414;9.784;2022-10-22T05:30:53;5.70;;;4.17;;
6251;SDS011;3159;52.414;9.784;2022-10-22T05:33:20;4.60;;;4.20;;
6251;SDS011;3159;52.414;9.784;2022-10-22T05:35:47;6.70;;;4.50;;
6251;SDS011;3159;52.414;9.784;2022-10-22T05:38:14;5.60;;;5.00;;
6251;SDS011;3159;52.414;9.784;2022-10-22T05:40:43;5.27;;;4.40;;
6251;SDS011;3159;52.414;9.784;2022-10-22T05:43:10;5.40;;;4.57;;
6251;SDS011;3159;52.414;9.784;2022-10-22T05:45:38;4.73;;;3.97;;
6251;SDS011;3159;52.414;9.784;2022-10-22T05:48:05;6.63;;;4.70;;
6251;SDS011;3159;52.414;9.784;2022-10-22T05:50:34;6.13;;;4.50;;
6251;SDS011;3159;52.414;9.784;2022-10-22T05:53:03;6.17;;;4.90;;
6251;SDS011;3159;52.414;9.784;2022-10-22T05:55:33;5.10;;;4.60;;
6251;SDS011;3159;52.414;9.784;2022-10-22T05:58:04;4.63;;;4.23;;
6251;SDS011;3159;52.414;9.784;2022-10-22T06:00:31;5.23;;;4.47;;
6251;SDS011;3159;52.414;9.784;2022-10-22T06:02:58;5.30;;;4.30;;
6251;SDS011;3159;52.414;9.784;2022-10-22T06:05:25;5.10;;;4.30;;
6251;SDS011;3159;52.414;9.784;2022-10-22T06:07:52;5.80;;;5.10;;
6251;SDS011;3159;52.414;9.784;2022-10-22T06:10:21;6.87;;;5.20;;
6251;SDS011;3159;52.414;9.784;2022-10-22T06:12:49;9.03;;;5.50;;
6251;SDS011;3159;52.414;9.784;2022-10-22T06:15:17;5.60;;;4.93;;
6251;SDS011;3159;52.414;9.784;2022-10-22T06:17:45;6.10;;;4.50;;
6251;SDS011;3159;52.414;9.784;2022-10-22T06:20:12;6.50;;;4.63;;
6251;SDS011;3159;52.414;9.784;2022-10-22T06:22:39;7.07;;;5.30;;
6251;SDS011;3159;52.414;9.784;2022-10-22T06:25:06;6.53;;;5.00;;
6251;SDS011;3159;52.414;9.784;2022-10-22T06:27:34;5.40;;;4.37;;
6251;SDS011;3159;52.414;9.784;2022-10-22T06:30:01;6.40;;;4.70;;
6251;SDS011;3159;52.414;9.784;2022-10-22T06:32:29;7.57;;;5.90;;
6251;SDS011;3159;52.414;9.784;2022-10-22T06:34:56;7.00;;;5.60;;
6251;SDS011;3159;52.414;9.784;2022-10-22T06:37:23;10.87;;;5.57;;
6251;SDS011;3159;52.414;9.784;2022-10-22T06:39:49;6.90;;;5.80;;
6251;SDS011;3159;52.414;9.784;2022-10-22T06:42:16;5.50;;;4.97;;
6251;SDS011;3159;52.414;9.784;2022-10-22T06:44:43;6.50;;;4.37;;
6251;SDS011;3159;52.414;9.784;2022-10-22T06:47:10;5.30;;;4.80;;
6251;SDS011;3159;52.414;9.784;2022-10-22T06:49:38;5.60;;;5.03;;
6251;SDS011;3159;52.414;9.784;2022-10-22T06:52:05;6.10;;;5.50;;
6251;SDS011;3159;52.414;9.784;2022-10-22T06:54:32;8.90;;;6.17;;
6251;SDS011;3159;52.414;9.784;2022-10-22T06:56:59;5.60;;;5.10;;
6251;SDS011;3159;52.414;9.784;2022-10-22T06:59:25;9.13;;;6.23;;
6251;SDS011;3159;52.414;9.784;2022-10-22T07:01:52;7.53;;;6.43;;
6251;SDS011;3159;52.414;9.784;2022-10-22T07:04:19;7.20;;;5.93;;
6251;SDS011;3159;52.414;9.784;2022-10-22T07:06:47;8.63;;;6.70;;
6251;SDS011;3159;52.414;9.784;2022-10-22T07:09:14;8.83;;;6.27;;
6251;SDS011;3159;52.414;9.784;2022-10-22T07:11:41;10.03;;;5.83;;
6251;SDS011;3159;52.414;9.784;2022-10-22T07:14:10;9.33;;;6.53;;
6251;SDS011;3159;52.414;9.784;2022-10-22T07:16:38;6.60;;;5.83;;
6251;SDS011;3159;52.414;9.784;2022-10-22T07:19:06;9.00;;;6.27;;
6251;SDS011;3159;52.414;9.784;2022-10-22T07:21:33;9.47;;;5.97;;
6251;SDS011;3159;52.414;9.784;2022-10-22T07:24:01;9.77;;;6.03;;
6251;SDS011;3159;52.414;9.784;2022-10-22T07:26:28;9.37;;;5.93;;
6251;SDS011;3159;52.414;9.784;2022-10-22T07:28:56;7.03;;;5.90;;
6251;SDS011;3159;52.414;9.784;2022-10-22T07:31:23;9.60;;;6.63;;
6251;SDS011;3159;52.414;9.784;2022-10-22T07:33:50;7.00;;;5.73;;
6251;SDS011;3159;52.414;9.784;2022-10-22T07:36:17;9.07;;;6.57;;
6251;SDS011;3159;52.414;9.784;2022-10-22T07:38:44;7.50;;;6.23;;
6251;SDS011;3159;52.414;9.784;2022-10-22T07:41:13;7.13;;;6.13;;
6251;SDS011;3159;52.414;9.784;2022-10-22T07:43:40;7.77;;;6.50;;
6251;SDS011;3159;52.414;9.784;2022-10-22T07:46:07;8.40;;;5.60;;
6251;SDS011;3159;52.414;9.784;2022-10-22T07:48:34;7.70;;;5.87;;
6251;SDS011;3159;52.414;9.784;2022-10-22T07:51:01;6.87;;;5.70;;
6251;SDS011;3159;52.414;9.784;2022-10-22T07:53:29;6.40;;;5.80;;
6251;SDS011;3159;52.414;9.784;2022-10-22T07:55:56;7.33;;;5.77;;
6251;SDS011;3159;52.414;9.784;2022-10-22T07:58:25;6.23;;;5.03;;
6251;SDS011;3159;52.414;9.784;2022-10-22T08:00:53;6.10;;;5.40;;
6251;SDS011;3159;52.414;9.784;2022-10-22T08:03:21;7.33;;;4.80;;
6251;SDS011;3159;52.414;9.784;2022-10-22T08:05:48;6.17;;;4.43;;
6251;SDS011;3159;52.414;9.784;2022-10-22T08:08:15;7.37;;;4.60;;
6251;SDS011;3159;52.414;9.784;2022-10-22T08:10:42;5.70;;;5.00;;
6251;SDS011;3159;52.414;9.784;2022-10-22T08:13:09;4.23;;;3.83;;
6251;SDS011;3159;52.414;9.784;2022-10-22T08:15:37;6.73;;;4.17;;
6251;SDS011;3159;52.414;9.784;2022-10-22T08:18:04;5.00;;;4.50;;
6251;SDS011;3159;52.414;9.784;2022-10-22T08:20:31;9.83;;;4.53;;
6251;SDS011;3159;52.414;9.784;2022-10-22T08:22:59;7.27;;;3.90;;
6251;SDS011;3159;52.414;9.784;2022-10-22T08:25:25;6.67;;;3.70;;
6251;SDS011;3159;52.414;9.784;2022-10-22T08:27:53;4.37;;;3.43;;
6251;SDS011;3159;52.414;9.784;2022-10-22T08:30:19;5.40;;;3.83;;
6251;SDS011;3159;52.414;9.784;2022-10-22T08:32:48;4.10;;;3.70;;
6251;SDS011;3159;52.414;9.784;2022-10-22T08:35:15;4.30;;;3.27;;
6251;SDS011;3159;52.414;9.784;2022-10-22T08:37:42;7.30;;;3.37;;
6251;SDS011;3159;52.414;9.784;2022-10-22T08:40:10;8.63;;;3.50;;
6251;SDS011;3159;52.414;9.784;2022-10-22T08:43:04;3.87;;;3.17;;
6251;SDS011;3159;52.414;9.784;2022-10-22T08:45:42;6.23;;;3.60;;
6251;SDS011;3159;52.414;9.784;2022-10-22T08:48:22;4.63;;;3.00;;
6251;SDS011;3159;52.414;9.784;2022-10-22T08:51:00;5.27;;;2.90;;
6251;SDS011;3159;52.414;9.784;2022-10-22T08:53:28;3.10;;;2.80;;
6251;SDS011;3159;52.414;9.784;2022-10-22T08:56:02;5.90;;;3.10;;
6251;SDS011;3159;52.414;9.784;2022-10-22T08:58:31;5.53;;;3.00;;
6251;SDS011;3159;52.414;9.784;2022-10-22T09:01:06;3.67;;;2.90;;
6251;SDS011;3159;52.414;9.784;2022-10-22T09:03:43;4.00;;;3.10;;
6251;SDS011;3159;52.414;9.784;2022-10-22T09:06:16;5.10;;;3.00;;
6251;SDS011;3159;52.414;9.784;2022-10-22T09:08:46;4.90;;;2.70;;
6251;SDS011;3159;52.414;9.784;2022-10-22T09:11:17;3.63;;;2.80;;
6251;SDS011;3159;52.414;9.784;2022-10-22T09:13:49;3.77;;;3.03;;
6251;SDS011;3159;52.414;9.784;2022-10-22T09:16:19;6.30;;;3.07;;
6251;SDS011;3159;52.414;9.784;2022-10-22T09:18:53;4.37;;;2.53;;
6251;SDS011;3159;52.414;9.784;2022-10-22T09:21:29;4.40;;;2.30;;
6251;SDS011;3159;52.414;9.784;2022-10-22T09:24:03;4.37;;;2.70;;
6251;SDS011;3159;52.414;9.784;2022-10-22T09:26:36;3.37;;;2.30;;
6251;SDS011;3159;52.414;9.784;2022-10-22T09:29:05;3.80;;;2.40;;
6251;SDS011;3159;52.414;9.784;2022-10-22T09:31:33;3.03;;;2.00;;
6251;SDS011;3159;52.414;9.784;2022-10-22T09:34:01;6.03;;;2.10;;
6251;SDS011;3159;52.414;9.784;2022-10-22T09:36:31;3.97;;;1.90;;
6251;SDS011;3159;52.414;9.784;2022-10-22T09:38:59;5.70;;;2.40;;
6251;SDS011;3159;52.414;9.784;2022-10-22T09:41:28;3.77;;;2.37;;
6251;SDS011;3159;52.414;9.784;2022-10-22T09:43:55;3.67;;;1.80;;
6251;SDS011;3159;52.414;9.784;2022-10-22T09:46:24;6.03;;;2.03;;
6251;SDS011;3159;52.414;9.784;2022-10-22T09:48:58;6.93;;;2.50;;
6251;SDS011;3159;52.414;9.784;2022-10-22T09:51:40;5.47;;;1.90;;
6251;SDS011;3159;52.414;9.784;2022-10-22T09:54:14;4.27;;;1.60;;
6251;SDS011;3159;52.414;9.784;2022-10-22T09:56:46;7.10;;;1.83;;
6251;SDS011;3159;52.414;9.784;2022-10-22T09:59:17;2.17;;;1.80;;
6251;SDS011;3159;52.414;9.784;2022-10-22T10:01:55;3.87;;;2.20;;
6251;SDS011;3159;52.414;9.784;2022-10-22T10:04:24;3.27;;;2.10;;
6251;SDS011;3159;52.414;9.784;2022-10-22T10:06:52;2.97;;;2.20;;
6251;SDS011;3159;52.414;9.784;2022-10-22T10:09:21;5.10;;;1.93;;
6251;SDS011;3159;52.414;9.784;2022-10-22T10:11:50;4.47;;;2.07;;
6251;SDS011;3159;52.414;9.784;2022-10-22T10:14:24;7.10;;;2.07;;
6251;SDS011;3159;52.414;9.784;2022-10-22T10:17:02;3.90;;;1.80;;
6251;SDS011;3159;52.414;9.784;2022-10-22T10:19:50;4.13;;;2.00;;
6251;SDS011;3159;52.414;9.784;2022-10-22T10:25:22;5.20;;;2.07;;
6251;SDS011;3159;52.414;9.784;2022-10-22T10:28:03;5.33;;;2.67;;
6251;SDS011;3159;52.414;9.784;2022-10-22T10:30:43;2.60;;;1.97;;
6251;SDS011;3159;52.414;9.784;2022-10-22T10:33:23;4.47;;;2.20;;
6251;SDS011;3159;52.414;9.784;2022-10-22T10:36:02;7.23;;;2.07;;
6251;SDS011;3159;52.414;9.784;2022-10-22T10:38:37;3.57;;;2.10;;
6251;SDS011;3159;52.414;9.784;2022-10-22T10:41:18;6.87;;;1.87;;
6251;SDS011;3159;52.414;9.784;2022-10-22T10:43:57;3.37;;;2.17;;
6251;SDS011;3159;52.414;9.784;2022-10-22T10:46:32;5.57;;;2.13;;
6251;SDS011;3159;52.414;9.784;2022-10-22T10:49:13;5.27;;;1.90;;
6251;SDS011;3159;52.414;9.784;2022-10-22T10:51:47;7.00;;;2.10;;
6251;SDS011;3159;52.414;9.784;2022-10-22T10:54:28;5.27;;;2.30;;
6251;SDS011;3159;52.414;9.784;2022-10-22T10:57:02;3.30;;;1.90;;
6251;SDS011;3159;52.414;9.784;2022-10-22T10:59:38;3.63;;;1.97;;
6251;SDS011;3159;52.414;9.784;2022-10-22T11:05:27;2.47;;;2.10;;
6251;SDS011;3159;52.414;9.784;2022-10-22T11:08:01;7.77;;;1.97;;
6251;SDS011;3159;52.414;9.784;2022-10-22T11:10:32;8.57;;;2.43;;
6251;SDS011;3159;52.414;9.784;2022-10-22T11:13:05;5.13;;;2.77;;
6251;SDS011;3159;52.414;9.784;2022-10-22T11:15:38;4.33;;;2.13;;
6251;SDS011;3159;52.414;9.784;2022-10-22T11:18:10;6.33;;;2.60;;
6251;SDS011;3159;52.414;9.784;2022-10-22T11:20:43;5.10;;;2.70;;
6251;SDS011;3159;52.414;9.784;2022-10-22T11:23:20;4.97;;;2.23;;
6251;SDS011;3159;52.414;9.784;2022-10-22T11:25:53;4.17;;;2.53;;
6251;SDS011;3159;52.414;9.784;2022-10-22T11:28:20;5.93;;;2.60;;
6251;SDS011;3159;52.414;9.784;2022-10-22T11:30:52;6.00;;;2.30;;
6251;SDS011;3159;52.414;9.784;2022-10-22T11:33:25;5.80;;;2.30;;
6251;SDS011;3159;52.414;9.784;2022-10-22T11:35:58;5.50;;;2.63;;
6251;SDS011;3159;52.414;9.784;2022-10-22T11:38:32;7.30;;;2.70;;
6251;SDS011;3159;52.414;9.784;2022-10-22T11:41:01;6.03;;;2.73;;
6251;SDS011;3159;52.414;9.784;2022-10-22T11:43:31;8.30;;;2.40;;
6251;SDS011;3159;52.414;9.784;2022-10-22T11:46:02;6.30;;;2.73;;
6251;SDS011;3159;52.414;9.784;2022-10-22T11:49:00;4.57;;;2.40;;
6251;SDS011;3159;52.414;9.784;2022-10-22T11:51:31;4.90;;;2.30;;
6251;SDS011;3159;52.414;9.784;2022-10-22T11:54:01;6.80;;;2.20;;
6251;SDS011;3159;52.414;9.784;2022-10-22T11:56:50;7.10;;;2.20;;
6251;SDS011;3159;52.414;9.784;2022-10-22T12:05:18;7.70;;;2.10;;
6251;SDS011;3159;52.414;9.784;2022-10-22T12:08:02;5.27;;;1.77;;
6251;SDS011;3159;52.414;9.784;2022-10-22T12:10:49;5.80;;;1.90;;
6251;SDS011;3159;52.414;9.784;2022-10-22T12:13:25;6.90;;;2.63;;
6251;SDS011;3159;52.414;9.784;2022-10-22T12:15:56;5.40;;;2.03;;
6251;SDS011;3159;52.414;9.784;2022-10-22T12:18:27;3.37;;;1.80;;
6251;SDS011;3159;52.414;9.784;2022-10-22T12:20:59;5.33;;;1.80;;
6251;SDS011;3159;52.414;9.784;2022-10-22T12:23:27;5.60;;;1.60;;
6251;SDS011;3159;52.414;9.784;2022-10-22T12:25:57;6.27;;;1.80;;
6251;SDS011;3159;52.414;9.784;2022-10-22T12:28:24;5.13;;;1.70;;
6251;SDS011;3159;52.414;9.784;2022-10-22T12:30:51;4.40;;;1.63;;
6251;SDS011;3159;52.414;9.784;2022-10-22T12:33:19;4.70;;;1.60;;
6251;SDS011;3159;52.414;9.784;2022-10-22T12:35:48;4.07;;;1.80;;
6251;SDS011;3159;52.414;9.784;2022-10-22T12:38:18;4.10;;;1.60;;
6251;SDS011;3159;52.414;9.784;2022-10-22T12:40:47;5.77;;;1.90;;
6251;SDS011;3159;52.414;9.784;2022-10-22T12:43:17;5.37;;;2.17;;
6251;SDS011;3159;52.414;9.784;2022-10-22T12:45:48;7.10;;;1.73;;
6251;SDS011;3159;52.414;9.784;2022-10-22T12:48:17;6.20;;;1.93;;
6251;SDS011;3159;52.414;9.784;2022-10-22T12:50:47;5.00;;;2.53;;
6251;SDS011;3159;52.414;9.784;2022-10-22T12:53:16;3.73;;;1.60;;
6251;SDS011;3159;52.414;9.784;2022-10-22T12:55:46;5.33;;;1.90;;
6251;SDS011;3159;52.414;9.784;2022-10-22T12:58:17;6.40;;;2.07;;
6251;SDS011;3159;52.414;9.784;2022-10-22T13:00:46;7.63;;;1.97;;
6251;SDS011;3159;52.414;9.784;2022-10-22T13:03:22;5.60;;;2.13;;
6251;SDS011;3159;52.414;9.784;2022-10-22T13:05:55;6.10;;;2.00;;
6251;SDS011;3159;52.414;9.784;2022-10-22T13:08:22;7.33;;;1.67;;
6251;SDS011;3159;52.414;9.784;2022-10-22T13:10:53;3.80;;;1.50;;
6251;SDS011;3159;52.414;9.784;2022-10-22T13:13:31;6.83;;;2.07;;
6251;SDS011;3159;52.414;9.784;2022-10-22T13:16:12;7.27;;;2.23;;
6251;SDS011;3159;52.414;9.784;2022-10-22T13:18:43;5.33;;;2.10;;
6251;SDS011;3159;52.414;9.784;2022-10-22T13:21:20;7.07;;;1.93;;
6251;SDS011;3159;52.414;9.784;2022-10-22T13:23:54;6.30;;;1.60;;
6251;SDS011;3159;52.414;9.784;2022-10-22T13:26:23;5.00;;;1.70;;
6251;SDS011;3159;52.414;9.784;2022-10-22T13:28:57;6.77;;;1.90;;
6251;SDS011;3159;52.414;9.784;2022-10-22T13:31:26;5.80;;;1.57;;
6251;SDS011;3159;52.414;9.784;2022-10-22T13:33:58;5.50;;;1.80;;
6251;SDS011;3159;52.414;9.784;2022-10-22T13:36:27;4.73;;;1.80;;
6251;SDS011;3159;52.414;9.784;2022-10-22T13:38:54;5.00;;;1.87;;
6251;SDS011;3159;52.414;9.784;2022-10-22T13:41:22;5.57;;;2.03;;
6251;SDS011;3159;52.414;9.784;2022-10-22T13:43:50;5.07;;;2.07;;
6251;SDS011;3159;52.414;9.784;2022-10-22T13:46:19;7.23;;;2.30;;
6251;SDS011;3159;52.414;9.784;2022-10-22T13:48:47;9.30;;;2.00;;
6251;SDS011;3159;52.414;9.784;2022-10-22T13:51:17;5.60;;;2.17;;
6251;SDS011;3159;52.414;9.784;2022-10-22T13:53:45;7.23;;;2.10;;
6251;SDS011;3159;52.414;9.784;2022-10-22T13:56:14;5.93;;;1.70;;
6251;SDS011;3159;52.414;9.784;2022-10-22T13:58:41;4.73;;;1.93;;
6251;SDS011;3159;52.414;9.784;2022-10-22T14:01:12;11.00;;;2.20;;
6251;SDS011;3159;52.414;9.784;2022-10-22T14:03:46;6.57;;;2.00;;
6251;SDS011;3159;52.414;9.784;2022-10-22T14:06:14;7.57;;;2.00;;
6251;SDS011;3159;52.414;9.784;2022-10-22T14:08:42;9.47;;;2.20;;
6251;SDS011;3159;52.414;9.784;2022-10-22T14:11:11;4.60;;;2.20;;
6251;SDS011;3159;52.414;9.784;2022-10-22T14:13:38;6.73;;;1.90;;
6251;SDS011;3159;52.414;9.784;2022-10-22T14:16:06;5.30;;;1.90;;
6251;SDS011;3159;52.414;9.784;2022-10-22T14:18:39;5.17;;;2.03;;
6251;SDS011;3159;52.414;9.784;2022-10-22T14:21:09;8.17;;;1.67;;
6251;SDS011;3159;52.414;9.784;2022-10-22T14:23:39;2.63;;;1.30;;
6251;SDS011;3159;52.414;9.784;2022-10-22T14:26:08;4.70;;;1.80;;
6251;SDS011;3159;52.414;9.784;2022-10-22T14:28:44;7.17;;;2.13;;
6251;SDS011;3159;52.414;9.784;2022-10-22T14:31:11;4.43;;;2.07;;
6251;SDS011;3159;52.414;9.784;2022-10-22T14:33:38;4.13;;;1.80;;
6251;SDS011;3159;52.414;9.784;2022-10-22T14:36:06;6.67;;;2.07;;
6251;SDS011;3159;52.414;9.784;2022-10-22T14:38:36;8.33;;;1.83;;
6251;SDS011;3159;52.414;9.784;2022-10-22T14:41:04;4.23;;;1.50;;
6251;SDS011;3159;52.414;9.784;2022-10-22T14:43:39;8.23;;;1.90;;
6251;SDS011;3159;52.414;9.784;2022-10-22T14:46:07;3.10;;;1.63;;
6251;SDS011;3159;52.414;9.784;2022-10-22T14:48:36;6.10;;;1.67;;
6251;SDS011;3159;52.414;9.784;2022-10-22T14:51:02;6.17;;;2.00;;
6251;SDS011;3159;52.414;9.784;2022-10-22T14:53:31;6.30;;;1.60;;
6251;SDS011;3159;52.414;9.784;2022-10-22T14:55:58;6.30;;;2.10;;
6251;SDS011;3159;52.414;9.784;2022-10-22T14:58:25;4.40;;;1.80;;
6251;SDS011;3159;52.414;9.784;2022-10-22T15:00:52;4.33;;;1.70;;
6251;SDS011;3159;52.414;9.784;2022-10-22T15:03:19;8.27;;;2.17;;
6251;SDS011;3159;52.414;9.784;2022-10-22T15:05:46;5.20;;;1.90;;
6251;SDS011;3159;52.414;9.784;2022-10-22T15:08:17;5.10;;;1.93;;
6251;SDS011;3159;52.414;9.784;2022-10-22T15:10:46;7.17;;;2.27;;
6251;SDS011;3159;52.414;9.784;2022-10-22T15:13:23;4.97;;;1.80;;
6251;SDS011;3159;52.414;9.784;2022-10-22T15:15:50;8.43;;;2.57;;
6251;SDS011;3159;52.414;9.784;2022-10-22T15:18:16;6.50;;;2.27;;
6251;SDS011;3159;52.414;9.784;2022-10-22T15:20:43;7.20;;;1.90;;
6251;SDS011;3159;52.414;9.784;2022-10-22T15:23:10;6.47;;;1.73;;
6251;SDS011;3159;52.414;9.784;2022-10-22T15:25:37;3.07;;;1.50;;
6251;SDS011;3159;52.414;9.784;2022-10-22T15:28:10;4.97;;;1.90;;
6251;SDS011;3159;52.414;9.784;2022-10-22T15:30:36;3.50;;;1.67;;
6251;SDS011;3159;52.414;9.784;2022-10-22T15:33:03;4.53;;;1.67;;
6251;SDS011;3159;52.414;9.784;2022-10-22T15:35:30;3.47;;;1.77;;
6251;SDS011;3159;52.414;9.784;2022-10-22T15:37:57;3.63;;;2.17;;
6251;SDS011;3159;52.414;9.784;2022-10-22T15:40:24;10.17;;;2.23;;
6251;SDS011;3159;52.414;9.784;2022-10-22T15:42:51;5.03;;;2.10;;
6251;SDS011;3159;52.414;9.784;2022-10-22T15:45:19;7.57;;;2.00;;
6251;SDS011;3159;52.414;9.784;2022-10-22T15:47:46;8.13;;;2.30;;